createdAt,value
2019-05-07T00:00:08.330Z,100984.95
2019-05-07T00:02:42.708Z,100983.22
2019-05-07T00:05:14.045Z,100977.69
2019-05-07T00:07:45.904Z,100982.20
2019-05-07T00:10:17.881Z,100982.87
2019-05-07T00:12:51.503Z,100984.20
2019-05-07T00:15:24.300Z,100979.87
2019-05-07T00:17:56.680Z,100982.37
2019-05-07T00:20:28.583Z,100986.19
2019-05-07T00:23:02.744Z,100987.31
2019-05-07T00:25:33.946Z,100986.71
2019-05-07T00:28:05.882Z,100987.20
2019-05-07T00:30:37.762Z,100982.09
2019-05-07T00:33:09.806Z,100981.20
2019-05-07T00:35:53.023Z,100987.61
2019-05-07T00:38:26.288Z,100988.34
2019-05-07T00:41:23.160Z,100986.67
2019-05-07T00:43:57.023Z,100996.22
2019-05-07T00:46:32.145Z,100994.38
2019-05-07T00:49:04.184Z,100996.16
2019-05-07T00:51:36.313Z,100994.66
2019-05-07T00:54:08.229Z,100997.66
2019-05-07T00:56:40.245Z,100998.39
2019-05-07T00:59:13.095Z,100994.70
2019-05-07T01:01:45.177Z,100999.70
2019-05-07T01:04:17.033Z,101002.96
2019-05-07T01:06:48.902Z,101002.56
2019-05-07T01:09:22.891Z,100999.73
2019-05-07T01:11:54.356Z,101002.89
2019-05-07T01:14:26.240Z,100998.66
2019-05-07T01:16:58.120Z,101003.05
2019-05-07T01:19:29.972Z,101007.62
2019-05-07T01:22:03.195Z,101004.72
2019-05-07T01:24:35.176Z,101006.70
2019-05-07T01:27:06.991Z,101004.44
2019-05-07T01:29:38.838Z,101002.47
2019-05-07T01:32:30.345Z,101005.06
2019-05-07T01:35:07.410Z,101010.41
2019-05-07T01:37:39.280Z,101009.81
2019-05-07T01:40:12.253Z,101012.16
2019-05-07T01:42:44.560Z,101009.91
2019-05-07T01:45:16.894Z,101012.83
2019-05-07T01:47:50.271Z,101013.09
2019-05-07T01:50:22.913Z,101021.66
2019-05-07T01:52:54.764Z,101020.17
2019-05-07T01:55:26.548Z,101018.66
2019-05-07T01:57:58.440Z,101016.83
2019-05-07T02:00:30.237Z,101017.20
2019-05-07T02:03:09.359Z,101016.41
2019-05-07T02:05:50.139Z,101022.45
2019-05-07T02:08:42.335Z,101017.48
2019-05-07T02:11:16.740Z,101017.08
2019-05-07T02:13:48.526Z,101015.45
2019-05-07T02:16:21.833Z,101016.45
2019-05-07T02:18:53.690Z,101014.27
2019-05-07T02:21:25.596Z,101019.59
2019-05-07T02:23:57.395Z,101015.66
2019-05-07T02:26:32.167Z,101016.20
2019-05-07T02:29:04.079Z,101012.84
2019-05-07T02:31:35.924Z,101012.11
2019-05-07T02:34:07.791Z,101011.02
2019-05-07T02:36:43.248Z,101015.33
2019-05-07T02:39:23.940Z,101018.23
2019-05-07T02:41:54.575Z,101019.22
2019-05-07T02:44:26.446Z,101019.61
2019-05-07T02:47:06.762Z,101018.42
2019-05-07T02:49:53.611Z,101018.33
2019-05-07T02:52:45.619Z,101015.50
2019-05-07T02:55:26.059Z,101016.14
2019-05-07T02:57:57.934Z,101015.84
2019-05-07T03:00:29.784Z,101015.06
2019-05-07T03:03:04.163Z,101012.59
2019-05-07T03:05:35.335Z,101015.34
2019-05-07T03:08:07.250Z,101011.38
2019-05-07T03:10:39.122Z,101019.80
2019-05-07T03:13:13.763Z,101022.05
2019-05-07T03:15:44.700Z,101022.33
2019-05-07T03:18:18.937Z,101028.31
2019-05-07T03:21:17.939Z,101021.56
2019-05-07T03:24:14.389Z,101019.77
2019-05-07T03:26:47.119Z,101018.64
2019-05-07T03:29:24.031Z,101018.50
2019-05-07T03:31:58.506Z,101021.05
2019-05-07T03:34:37.546Z,101026.66
2019-05-07T03:37:13.538Z,101029.72
2019-05-07T03:39:44.933Z,101032.16
2019-05-07T03:42:16.804Z,101033.23
2019-05-07T03:45:13.462Z,101030.50
2019-05-07T03:47:47.362Z,101031.75
2019-05-07T03:50:19.173Z,101034.19
2019-05-07T03:52:50.974Z,101037.91
2019-05-07T03:55:23.436Z,101039.86
2019-05-07T03:57:55.455Z,101044.00
2019-05-07T04:00:27.648Z,101044.44
2019-05-07T04:02:59.529Z,101048.70
2019-05-07T04:05:34.254Z,101043.61
2019-05-07T04:08:04.954Z,101048.13
2019-05-07T04:10:36.832Z,101051.22
2019-05-07T04:13:08.673Z,101046.19
2019-05-07T04:15:43.889Z,101043.23
2019-05-07T04:18:14.661Z,101050.47
2019-05-07T04:20:46.630Z,101050.26
2019-05-07T04:23:18.505Z,101048.84
2019-05-07T04:26:09.204Z,101049.53
2019-05-07T04:28:59.957Z,101048.45
2019-05-07T04:31:35.931Z,101040.39
2019-05-07T04:34:16.185Z,101056.47
2019-05-07T04:36:53.172Z,101043.70
2019-05-07T04:39:23.499Z,101048.80
2019-05-07T04:41:55.450Z,101048.31
2019-05-07T04:44:27.232Z,101048.65
2019-05-07T04:46:59.024Z,101048.55
2019-05-07T04:49:33.189Z,101052.95
2019-05-07T04:52:15.312Z,101059.94
2019-05-07T04:54:46.621Z,101060.42
2019-05-07T04:57:27.554Z,101061.52
2019-05-07T05:00:02.923Z,101062.80
2019-05-07T05:03:04.347Z,101071.21
2019-05-07T05:05:36.154Z,101063.41
2019-05-07T05:08:08.010Z,101065.38
2019-05-07T05:10:39.794Z,101065.13
2019-05-07T05:13:12.982Z,101072.05
2019-05-07T05:15:45.014Z,101074.17
2019-05-07T05:18:16.893Z,101072.13
2019-05-07T05:21:05.695Z,101071.56
2019-05-07T05:23:56.466Z,101075.80
2019-05-07T05:26:28.308Z,101077.93
2019-05-07T05:29:02.283Z,101082.55
2019-05-07T05:31:33.688Z,101075.14
2019-05-07T05:34:05.536Z,101073.97
2019-05-07T05:36:37.375Z,101082.13
2019-05-07T05:39:09.775Z,101086.05
2019-05-07T05:41:43.448Z,101080.56
2019-05-07T05:44:32.159Z,101081.52
2019-05-07T05:47:04.028Z,101086.53
2019-05-07T05:49:35.840Z,101088.39
2019-05-07T05:52:26.554Z,101087.24
2019-05-07T05:55:02.636Z,101084.44
2019-05-07T05:57:56.237Z,101088.78
2019-05-07T06:00:47.503Z,101087.06
2019-05-07T06:03:32.261Z,101086.50
2019-05-07T06:06:21.969Z,101089.23
2019-05-07T06:09:04.224Z,101098.66
2019-05-07T06:11:54.227Z,101100.06
2019-05-07T06:14:47.823Z,101093.39
2019-05-07T06:17:56.646Z,101090.30
2019-05-07T06:20:42.854Z,101093.10
2019-05-07T06:23:52.822Z,101095.33
2019-05-07T06:26:24.782Z,101099.06
2019-05-07T06:28:57.553Z,101098.62
2019-05-07T06:31:29.321Z,101102.25
2019-05-07T06:34:01.887Z,101101.34
2019-05-07T06:36:35.475Z,101103.12
2019-05-07T06:39:16.968Z,101110.79
2019-05-07T06:42:05.993Z,101107.46
2019-05-07T06:44:38.001Z,101106.89
2019-05-07T06:47:10.356Z,101110.50
2019-05-07T06:49:42.813Z,101110.25
2019-05-07T06:52:14.732Z,101106.16
2019-05-07T06:54:46.688Z,101113.85
2019-05-07T06:57:18.581Z,101112.75
2019-05-07T06:59:54.098Z,101106.91
2019-05-07T07:02:41.816Z,101107.92
2019-05-07T07:05:42.545Z,101100.79
2019-05-07T07:08:33.496Z,101103.37
2019-05-07T07:11:15.571Z,101101.16
2019-05-07T07:13:47.425Z,101099.81
2019-05-07T07:16:19.286Z,101102.95
2019-05-07T07:18:54.953Z,101095.89
2019-05-07T07:21:24.722Z,101093.98
2019-05-07T07:23:56.567Z,101101.48
2019-05-07T07:26:28.625Z,101092.30
2019-05-07T07:29:01.987Z,101094.95
2019-05-07T07:31:52.788Z,101094.00
2019-05-07T07:34:26.015Z,101094.80
2019-05-07T07:37:15.726Z,101094.01
2019-05-07T07:39:46.648Z,101109.84
2019-05-07T07:42:18.442Z,101091.52
2019-05-07T07:44:52.994Z,101098.23
2019-05-07T07:47:24.807Z,101098.70
2019-05-07T07:49:56.599Z,101097.06
2019-05-07T07:52:28.469Z,101101.20
2019-05-07T07:55:02.187Z,101096.79
2019-05-07T07:57:44.394Z,101095.64
2019-05-07T08:00:35.567Z,101093.80
2019-05-07T08:03:09.417Z,101093.30
2019-05-07T08:05:42.714Z,101091.69
2019-05-07T08:08:14.724Z,101093.38
2019-05-07T08:10:46.644Z,101100.59
2019-05-07T08:13:18.432Z,101098.87
2019-05-07T08:15:51.942Z,101099.17
2019-05-07T08:18:23.983Z,101101.61
2019-05-07T08:20:55.914Z,101095.34
2019-05-07T08:23:27.779Z,101098.67
2019-05-07T08:25:59.664Z,101101.45
2019-05-07T08:28:32.047Z,101091.42
2019-05-07T08:31:22.580Z,101102.51
2019-05-07T08:34:02.083Z,101092.74
2019-05-07T08:36:36.449Z,101096.72
2019-05-07T08:39:09.023Z,101093.06
2019-05-07T08:41:42.339Z,101097.52
2019-05-07T08:44:18.674Z,101090.52
2019-05-07T08:47:02.700Z,101091.41
2019-05-07T08:49:39.540Z,101090.31
2019-05-07T08:52:08.644Z,101092.38
2019-05-07T08:54:42.679Z,101089.73
2019-05-07T08:57:14.633Z,101092.53
2019-05-07T09:00:00.069Z,101083.41
2019-05-07T09:02:22.411Z,101085.05
2019-05-07T09:04:54.422Z,101095.81
2019-05-07T09:07:26.434Z,101091.52
2019-05-07T09:09:58.424Z,101094.41
2019-05-07T09:12:31.880Z,101096.17
2019-05-07T09:15:05.110Z,101099.70
2019-05-07T09:17:37.327Z,101093.67
2019-05-07T09:20:09.403Z,101098.34
2019-05-07T09:22:42.774Z,101097.33
2019-05-07T09:25:15.237Z,101097.46
2019-05-07T09:27:52.375Z,101101.16
2019-05-07T09:30:43.686Z,101103.30
2019-05-07T09:33:32.463Z,101104.16
2019-05-07T09:36:07.491Z,101092.31
2019-05-07T09:38:49.748Z,101100.33
2019-05-07T09:41:28.468Z,101090.23
2019-05-07T09:44:02.989Z,101095.40
2019-05-07T09:46:37.268Z,101105.08
2019-05-07T09:49:12.044Z,101090.80
2019-05-07T09:51:45.087Z,101090.97
2019-05-07T09:54:17.047Z,101093.23
2019-05-07T09:56:49.191Z,101093.69
2019-05-07T09:59:21.926Z,101096.34
2019-05-07T10:02:05.004Z,101091.45
2019-05-07T10:04:44.906Z,101090.65
2019-05-07T10:07:16.959Z,101091.52
2019-05-07T10:09:48.902Z,101089.13
2019-05-07T10:12:36.489Z,101088.10
2019-05-07T10:15:09.260Z,101091.58
2019-05-07T10:17:49.041Z,101092.98
2019-05-07T10:20:22.777Z,101086.72
2019-05-07T10:22:54.786Z,101080.59
2019-05-07T10:25:28.782Z,101083.39
2019-05-07T10:28:01.958Z,101081.22
2019-05-07T10:30:35.040Z,101083.32
2019-05-07T10:33:07.035Z,101077.37
2019-05-07T10:35:39.116Z,101082.98
2019-05-07T10:38:12.451Z,101076.86
2019-05-07T10:40:44.782Z,101079.08
2019-05-07T10:43:16.680Z,101080.33
2019-05-07T10:46:13.240Z,101079.56
2019-05-07T10:48:55.345Z,101078.07
2019-05-07T10:51:28.563Z,101070.61
2019-05-07T10:54:02.226Z,101087.63
2019-05-07T10:56:35.624Z,101069.56
2019-05-07T10:59:07.804Z,101064.55
2019-05-07T11:01:45.283Z,101073.22
2019-05-07T11:04:18.166Z,101069.26
2019-05-07T11:06:52.163Z,101074.75
2019-05-07T11:09:24.078Z,101074.77
2019-05-07T11:11:56.537Z,101064.98
2019-05-07T11:14:28.505Z,101069.80
2019-05-07T11:17:24.048Z,101077.52
2019-05-07T11:19:56.143Z,101060.13
2019-05-07T11:22:28.053Z,101064.88
2019-05-07T11:25:03.003Z,101064.88
2019-05-07T11:27:36.277Z,101062.12
2019-05-07T11:30:08.983Z,101058.15
2019-05-07T11:32:42.965Z,101079.91
2019-05-07T11:35:16.131Z,101073.89
2019-05-07T11:37:48.411Z,101061.70
2019-05-07T11:40:22.682Z,101061.86
2019-05-07T11:43:15.777Z,101060.55
2019-05-07T11:45:58.661Z,101060.55
2019-05-07T11:48:29.366Z,101053.91
2019-05-07T11:51:07.397Z,101050.64
2019-05-07T11:53:41.926Z,101059.97
2019-05-07T11:56:13.933Z,101052.94
2019-05-07T11:58:45.811Z,101051.45
2019-05-07T12:01:19.243Z,101051.45
2019-05-07T12:03:52.049Z,101044.19
2019-05-07T12:06:24.136Z,101034.08
2019-05-07T12:08:56.149Z,101041.17
2019-05-07T12:11:28.114Z,101044.44
2019-05-07T12:14:02.073Z,101040.13
2019-05-07T12:16:47.745Z,101040.13
2019-05-07T12:19:22.648Z,101026.10
2019-05-07T12:21:54.443Z,101033.98
2019-05-07T12:24:26.371Z,101025.98
2019-05-07T12:26:58.246Z,101026.57
2019-05-07T12:29:32.271Z,101034.67
2019-05-07T12:32:29.346Z,101036.19
2019-05-07T12:35:08.151Z,101038.27
2019-05-07T12:37:42.394Z,101036.23
2019-05-07T12:40:14.489Z,101041.80
2019-05-07T12:42:46.496Z,101045.85
2019-05-07T12:45:18.527Z,101053.93
2019-05-07T12:47:52.942Z,101050.00
2019-05-07T12:50:24.649Z,101045.98
2019-05-07T12:53:03.825Z,101034.40
2019-05-07T12:55:42.886Z,101024.34
2019-05-07T12:58:15.106Z,101017.69
2019-05-07T13:00:55.526Z,101025.43
2019-05-07T13:03:49.350Z,101014.23
2019-05-07T13:06:24.143Z,101015.86
2019-05-07T13:08:56.010Z,101026.84
2019-05-07T13:11:27.906Z,101022.48
2019-05-07T13:14:01.998Z,101026.84
2019-05-07T13:16:34.498Z,101023.96
2019-05-07T13:19:06.399Z,101035.89
2019-05-07T13:21:47.443Z,101026.66
2019-05-07T13:24:14.756Z,101034.75
2019-05-07T13:26:45.685Z,101035.44
2019-05-07T13:29:18.659Z,101035.44
2019-05-07T13:31:53.867Z,101031.64
2019-05-07T13:34:25.157Z,101025.12
2019-05-07T13:37:02.532Z,101025.12
2019-05-07T13:39:46.143Z,101031.73
2019-05-07T13:42:35.590Z,101033.80
2019-05-07T13:45:15.475Z,101043.08
2019-05-07T13:47:51.783Z,101029.34
2019-05-07T13:50:24.289Z,101026.01
2019-05-07T13:52:56.159Z,101025.36
2019-05-07T13:55:28.014Z,101023.97
2019-05-07T13:58:02.048Z,101023.35
2019-05-07T14:00:40.149Z,101017.63
2019-05-07T14:03:12.147Z,101013.79
2019-05-07T14:05:44.498Z,100960.52
2019-05-07T14:08:16.863Z,101000.83
2019-05-07T14:10:48.792Z,101003.59
2019-05-07T14:13:21.953Z,101003.58
2019-05-07T14:16:06.957Z,101006.72
2019-05-07T14:18:39.697Z,100999.75
2019-05-07T14:21:13.000Z,101005.36
2019-05-07T14:23:45.202Z,101006.31
2019-05-07T14:26:17.078Z,101003.97
2019-05-07T14:28:48.972Z,101002.48
2019-05-07T14:31:20.899Z,101001.34
2019-05-07T14:33:58.254Z,101007.38
2019-05-07T14:36:56.957Z,101000.83
2019-05-07T14:39:28.415Z,101005.97
2019-05-07T14:42:02.710Z,101006.08
2019-05-07T14:44:50.299Z,101003.02
2019-05-07T14:47:22.556Z,101000.34
2019-05-07T14:49:55.444Z,101000.34
2019-05-07T14:52:33.045Z,101002.83
2019-05-07T14:55:05.041Z,101004.88
2019-05-07T14:57:41.911Z,101010.72
2019-05-07T15:00:14.492Z,101003.09
2019-05-07T15:02:46.400Z,100998.49
2019-05-07T15:05:18.378Z,101011.77
2019-05-07T15:07:50.412Z,101002.24
2019-05-07T15:10:22.350Z,101002.73
2019-05-07T15:12:54.254Z,101004.41
2019-05-07T15:15:26.072Z,101003.37
2019-05-07T15:18:15.814Z,101002.73
2019-05-07T15:20:47.441Z,100999.45
2019-05-07T15:23:31.867Z,100992.34
2019-05-07T15:26:04.823Z,101000.14
2019-05-07T15:28:39.212Z,100990.06
2019-05-07T15:31:19.006Z,100988.52
2019-05-07T15:33:52.298Z,100993.86
2019-05-07T15:36:24.523Z,100994.35
2019-05-07T15:38:56.405Z,100984.55
2019-05-07T15:41:28.367Z,100980.70
2019-05-07T15:44:02.715Z,100987.09
2019-05-07T15:46:34.292Z,100983.80
2019-05-07T15:49:06.207Z,100985.39
2019-05-07T15:51:38.141Z,100985.40
2019-05-07T15:54:10.145Z,100984.23
2019-05-07T15:56:43.050Z,100983.97
2019-05-07T15:59:22.816Z,100979.58
2019-05-07T16:02:00.050Z,100978.80
2019-05-07T16:04:32.889Z,100975.30
2019-05-07T16:07:06.562Z,100972.87
2019-05-07T16:09:44.689Z,100971.12
2019-05-07T16:12:19.761Z,100987.59
2019-05-07T16:14:52.509Z,100978.79
2019-05-07T16:17:32.845Z,100981.02
2019-05-07T16:20:05.134Z,100989.12
2019-05-07T16:22:42.371Z,100999.05
2019-05-07T16:25:14.299Z,100999.09
2019-05-07T16:27:46.189Z,100997.14
2019-05-07T16:30:18.187Z,100995.73
2019-05-07T16:32:52.608Z,100999.63
2019-05-07T16:35:23.601Z,101000.95
2019-05-07T16:37:55.490Z,101003.37
2019-05-07T16:40:28.529Z,101002.18
2019-05-07T16:43:02.728Z,101003.25
2019-05-07T16:45:34.900Z,101005.25
2019-05-07T16:48:08.932Z,101000.07
2019-05-07T16:50:42.265Z,101004.99
2019-05-07T16:53:26.596Z,101004.55
2019-05-07T16:55:48.291Z,101006.61
2019-05-07T16:58:36.514Z,101007.71
2019-05-07T17:01:10.041Z,101007.23
2019-05-07T17:03:57.413Z,101004.44
2019-05-07T17:06:29.303Z,101002.81
2019-05-07T17:09:04.441Z,101001.32
2019-05-07T17:11:37.797Z,101003.69
2019-05-07T17:14:09.682Z,101003.67
2019-05-07T17:16:42.015Z,101008.47
2019-05-07T17:19:15.210Z,101010.07
2019-05-07T17:21:47.265Z,101010.77
2019-05-07T17:24:19.722Z,101015.37
2019-05-07T17:26:51.842Z,101011.98
2019-05-07T17:29:23.796Z,101011.98
2019-05-07T17:31:55.772Z,101024.88
2019-05-07T17:34:27.658Z,101023.88
2019-05-07T17:37:01.839Z,101023.88
2019-05-07T17:39:33.141Z,101030.41
2019-05-07T17:42:05.123Z,101029.47
2019-05-07T17:44:37.552Z,101029.47
2019-05-07T17:47:12.773Z,101031.41
2019-05-07T17:49:45.384Z,101028.73
2019-05-07T17:52:17.305Z,101028.73
2019-05-07T17:54:49.191Z,101031.67
2019-05-07T17:57:22.759Z,101026.91
2019-05-07T17:59:54.779Z,101031.70
2019-05-07T18:02:48.342Z,101034.16
2019-05-07T18:05:20.317Z,101040.30
2019-05-07T18:07:52.802Z,101032.30
2019-05-07T18:10:25.757Z,101035.25
2019-05-07T18:12:57.658Z,101035.48
2019-05-07T18:15:29.550Z,101034.14
2019-05-07T18:18:06.595Z,101035.12
2019-05-07T18:20:38.442Z,101045.31
2019-05-07T18:23:16.423Z,101037.95
2019-05-07T18:25:43.941Z,101042.38
2019-05-07T18:28:17.090Z,101040.05
2019-05-07T18:30:51.578Z,101042.36
2019-05-07T18:33:49.038Z,101049.11
2019-05-07T18:36:22.698Z,101048.33
2019-05-07T18:38:54.774Z,101052.01
2019-05-07T18:41:26.675Z,101052.27
2019-05-07T18:44:08.968Z,101055.20
2019-05-07T18:46:32.802Z,101050.38
2019-05-07T18:49:05.020Z,101050.05
2019-05-07T18:51:36.908Z,101049.17
2019-05-07T18:54:08.791Z,101056.28
2019-05-07T18:56:42.062Z,101049.91
2019-05-07T18:59:15.009Z,101056.23
2019-05-07T19:01:46.828Z,101056.59
2019-05-07T19:04:18.727Z,101057.16
2019-05-07T19:06:52.676Z,101063.30
2019-05-07T19:09:27.466Z,101054.05
2019-05-07T19:11:59.778Z,101060.91
2019-05-07T19:14:33.349Z,101059.12
2019-05-07T19:17:05.796Z,101057.91
2019-05-07T19:19:38.133Z,101054.18
2019-05-07T19:22:10.279Z,101059.80
2019-05-07T19:24:47.819Z,101056.78
2019-05-07T19:27:17.204Z,101059.70
2019-05-07T19:29:49.367Z,101057.58
2019-05-07T19:32:22.865Z,101054.36
2019-05-07T19:34:54.933Z,101060.84
2019-05-07T19:37:27.182Z,101056.27
2019-05-07T19:39:59.135Z,101058.56
2019-05-07T19:42:31.795Z,101058.03
2019-05-07T19:45:03.932Z,101053.30
2019-05-07T19:47:36.821Z,101060.34
2019-05-07T19:50:12.410Z,101061.20
2019-05-07T19:52:45.209Z,101060.70
2019-05-07T19:55:17.206Z,101056.25
2019-05-07T19:58:02.440Z,101056.52
2019-05-07T20:00:34.422Z,101059.03
2019-05-07T20:03:06.385Z,101056.01
2019-05-07T20:05:39.352Z,101051.89
2019-05-07T20:08:12.056Z,101050.16
2019-05-07T20:10:51.879Z,101053.19
2019-05-07T20:13:23.899Z,101056.08
2019-05-07T20:16:04.952Z,101047.67
2019-05-07T20:18:37.125Z,101051.65
2019-05-07T20:21:08.935Z,101053.41
2019-05-07T20:23:42.611Z,101057.55
2019-05-07T20:26:14.707Z,101063.19
2019-05-07T20:28:47.609Z,101058.81
2019-05-07T20:31:19.498Z,101060.36
2019-05-07T20:33:53.019Z,101058.83
2019-05-07T20:36:25.139Z,101057.13
2019-05-07T20:38:57.028Z,101063.80
2019-05-07T20:41:28.891Z,101064.11
2019-05-07T20:44:02.875Z,101063.55
2019-05-07T20:46:34.562Z,101062.80
2019-05-07T20:49:06.401Z,101061.84
2019-05-07T20:51:38.243Z,101061.11
2019-05-07T20:54:16.284Z,101056.98
2019-05-07T20:56:54.515Z,101061.97
2019-05-07T20:59:26.320Z,101057.94
2019-05-07T21:01:58.267Z,101067.64
2019-05-07T21:04:32.838Z,101071.85
2019-05-07T21:07:04.026Z,101066.51
2019-05-07T21:09:35.916Z,101065.74
2019-05-07T21:12:08.172Z,101066.58
2019-05-07T21:14:41.815Z,101064.00
2019-05-07T21:17:13.738Z,101063.34
2019-05-07T21:19:48.740Z,101068.02
2019-05-07T21:22:22.723Z,101063.19
2019-05-07T21:24:54.448Z,101066.61
2019-05-07T21:27:26.418Z,101070.80
2019-05-07T21:29:58.285Z,101065.70
2019-05-07T21:32:32.382Z,101064.41
2019-05-07T21:35:03.619Z,101061.55
2019-05-07T21:37:35.541Z,101054.64
2019-05-07T21:40:08.036Z,101061.02
2019-05-07T21:42:40.100Z,101059.54
2019-05-07T21:45:12.391Z,101058.52
2019-05-07T21:47:45.438Z,101056.47
2019-05-07T21:50:17.558Z,101061.66
2019-05-07T21:52:54.477Z,101063.02
2019-05-07T21:55:35.778Z,101063.69
2019-05-07T21:58:33.354Z,101066.61
2019-05-07T22:01:22.254Z,101066.70
2019-05-07T22:03:59.127Z,101064.86
2019-05-07T22:06:31.061Z,101063.64
2019-05-07T22:09:02.916Z,101065.10
2019-05-07T22:11:36.428Z,101063.25
2019-05-07T22:14:08.432Z,101068.33
2019-05-07T22:16:40.300Z,101066.27
2019-05-07T22:19:12.402Z,101070.00
2019-05-07T22:21:44.683Z,101076.53
2019-05-07T22:24:16.588Z,101072.05
2019-05-07T22:26:48.617Z,101065.49
2019-05-07T22:29:22.591Z,101068.88
2019-05-07T22:32:04.337Z,101068.75
2019-05-07T22:34:58.030Z,101075.16
2019-05-07T22:37:32.414Z,101067.08
2019-05-07T22:40:06.616Z,101073.75
2019-05-07T22:42:40.448Z,101069.19
2019-05-07T22:45:12.502Z,101072.80
2019-05-07T22:47:44.464Z,101068.63
2019-05-07T22:50:17.033Z,101069.73
2019-05-07T22:52:48.915Z,101070.67
2019-05-07T22:55:21.831Z,101068.12
2019-05-07T22:58:01.837Z,101072.96
2019-05-07T23:00:36.813Z,101067.22
2019-05-07T23:03:08.690Z,101072.02
2019-05-07T23:05:42.224Z,101066.92
2019-05-07T23:08:14.431Z,101063.56
2019-05-07T23:10:46.669Z,101060.25
2019-05-07T23:13:18.725Z,101057.05
2019-05-07T23:15:51.770Z,101056.41
2019-05-07T23:18:24.144Z,101053.41
2019-05-07T23:20:56.139Z,101052.88
2019-05-07T23:23:27.954Z,101058.77
2019-05-07T23:25:59.735Z,101050.90
2019-05-07T23:28:32.347Z,101056.79
2019-05-07T23:31:04.195Z,101064.23
2019-05-07T23:33:36.069Z,101059.67
2019-05-07T23:36:08.045Z,101064.47
2019-05-07T23:38:39.933Z,101060.34
2019-05-07T23:41:22.164Z,101059.44
2019-05-07T23:44:12.470Z,101059.98
2019-05-07T23:46:45.810Z,101065.08
2019-05-07T23:49:17.675Z,101059.09
2019-05-07T23:51:49.561Z,101060.37
2019-05-07T23:54:23.082Z,101062.41
2019-05-07T23:57:06.050Z,101063.39
2019-05-07T23:59:29.606Z,101058.59
